createdAt,value
2019-03-18T00:00:32.402Z,3.90
2019-03-18T00:03:12.739Z,3.90
2019-03-18T00:05:54.952Z,3.80
2019-03-18T00:08:36.099Z,3.70
2019-03-18T00:11:16.649Z,3.70
2019-03-18T00:13:57.338Z,3.80
2019-03-18T00:16:38.281Z,3.80
2019-03-18T00:19:19.031Z,3.70
2019-03-18T00:22:00.275Z,3.70
2019-03-18T00:27:19.677Z,3.60
2019-03-18T00:30:00.364Z,3.60
2019-03-18T00:32:41.358Z,3.60
2019-03-18T00:35:21.793Z,3.60
2019-03-18T00:38:03.160Z,3.50
2019-03-18T00:40:44.762Z,3.50
2019-03-18T00:43:25.439Z,3.50
2019-03-18T00:46:06.375Z,3.60
2019-03-18T00:48:47.253Z,3.60
2019-03-18T00:51:27.969Z,3.70
2019-03-18T00:54:08.733Z,3.70
2019-03-18T00:56:49.862Z,3.70
2019-03-18T00:59:31.167Z,3.80
2019-03-18T01:02:12.472Z,3.90
2019-03-18T01:04:53.165Z,3.80
2019-03-18T01:07:34.058Z,3.80
2019-03-18T01:12:54.906Z,3.80
2019-03-18T01:15:35.764Z,3.80
2019-03-18T01:18:16.865Z,3.80
2019-03-18T01:20:57.775Z,3.80
2019-03-18T01:23:38.426Z,3.80
2019-03-18T01:26:19.160Z,3.80
2019-03-18T01:29:00.357Z,3.80
2019-03-18T01:31:29.420Z,3.80
2019-03-18T01:34:17.631Z,3.80
2019-03-18T01:37:01.473Z,3.80
2019-03-18T01:39:41.882Z,3.80
2019-03-18T01:42:22.768Z,3.70
2019-03-18T01:45:03.425Z,3.70
2019-03-18T01:47:44.445Z,3.70
2019-03-18T01:50:25.521Z,3.70
2019-03-18T01:53:06.875Z,3.60
2019-03-18T01:58:26.818Z,3.60
2019-03-18T02:00:55.892Z,3.60
2019-03-18T02:06:45.104Z,3.50
2019-03-18T02:09:14.216Z,3.50
2019-03-18T02:12:02.485Z,3.40
2019-03-18T02:14:50.871Z,3.30
2019-03-18T02:17:31.741Z,3.30
2019-03-18T02:20:12.379Z,3.30
2019-03-18T02:22:52.752Z,3.30
2019-03-18T02:25:33.946Z,3.20
2019-03-18T02:28:15.299Z,3.20
2019-03-18T02:30:55.960Z,3.20
2019-03-18T02:33:36.653Z,3.20
2019-03-18T02:38:56.191Z,3.20
2019-03-18T02:41:37.861Z,3.20
2019-03-18T02:44:19.341Z,3.20
2019-03-18T02:47:00.770Z,3.20
2019-03-18T02:49:41.812Z,3.10
2019-03-18T02:52:22.495Z,3.10
2019-03-18T02:55:03.243Z,3.10
2019-03-18T03:00:26.178Z,3.20
2019-03-18T03:03:07.539Z,3.20
2019-03-18T03:05:48.200Z,3.20
2019-03-18T03:08:28.009Z,3.10
2019-03-18T03:11:09.414Z,3.10
2019-03-18T03:16:27.777Z,3.00
2019-03-18T03:19:09.300Z,3.00
2019-03-18T03:21:50.245Z,3.00
2019-03-18T03:24:31.511Z,3.00
2019-03-18T03:27:12.650Z,3.10
2019-03-18T03:29:53.887Z,3.10
2019-03-18T03:32:34.784Z,3.00
2019-03-18T03:35:15.733Z,3.00
2019-03-18T03:37:56.233Z,3.00
2019-03-18T03:40:37.114Z,2.90
2019-03-18T03:43:06.122Z,2.90
2019-03-18T03:45:54.541Z,2.90
2019-03-18T03:48:41.904Z,2.90
2019-03-18T03:51:24.426Z,3.00
2019-03-18T03:54:05.352Z,3.00
2019-03-18T03:56:46.261Z,3.00
2019-03-18T03:59:27.209Z,3.00
2019-03-18T04:02:08.224Z,3.00
2019-03-18T04:04:49.139Z,3.10
2019-03-18T04:07:30.332Z,3.10
2019-03-18T04:12:50.389Z,3.10
2019-03-18T04:15:31.223Z,3.00
2019-03-18T04:18:11.776Z,3.10
2019-03-18T04:20:52.539Z,3.00
2019-03-18T04:23:33.741Z,3.00
2019-03-18T04:26:14.478Z,3.00
2019-03-18T04:28:55.301Z,3.00
2019-03-18T04:31:24.357Z,3.00
2019-03-18T04:34:12.630Z,3.10
2019-03-18T04:36:53.900Z,3.10
2019-03-18T04:39:34.912Z,3.10
2019-03-18T04:42:15.601Z,3.10
2019-03-18T04:44:56.922Z,3.10
2019-03-18T04:47:38.064Z,3.10
2019-03-18T04:50:19.103Z,3.10
2019-03-18T04:53:03.061Z,3.10
2019-03-18T04:55:43.655Z,3.10
2019-03-18T04:58:24.543Z,3.10
2019-03-18T05:01:05.142Z,3.10
2019-03-18T05:03:45.819Z,3.10
2019-03-18T05:06:26.454Z,3.10
2019-03-18T05:09:07.290Z,3.10
2019-03-18T05:14:33.640Z,3.20
2019-03-18T05:17:26.169Z,3.20
2019-03-18T05:19:57.452Z,3.20
2019-03-18T05:22:38.170Z,3.20
2019-03-18T05:25:19.124Z,3.20
2019-03-18T05:27:59.904Z,3.20
2019-03-18T05:30:40.673Z,3.20
2019-03-18T05:33:21.618Z,3.10
2019-03-18T05:36:03.107Z,3.10
2019-03-18T05:38:43.924Z,3.20
2019-03-18T05:41:24.560Z,3.20
2019-03-18T05:44:07.968Z,3.20
2019-03-18T05:46:48.265Z,3.20
2019-03-18T05:49:28.981Z,3.20
2019-03-18T05:52:09.982Z,3.30
2019-03-18T05:54:50.652Z,3.30
2019-03-18T05:57:31.319Z,3.30
2019-03-18T06:00:11.980Z,3.30
2019-03-18T06:02:52.742Z,3.40
2019-03-18T06:05:33.556Z,3.40
2019-03-18T06:08:14.408Z,3.40
2019-03-18T06:10:55.515Z,3.40
2019-03-18T06:13:36.567Z,3.40
2019-03-18T06:16:17.887Z,3.40
2019-03-18T06:19:00.254Z,3.50
2019-03-18T06:21:41.243Z,3.50
2019-03-18T06:24:22.034Z,3.50
2019-03-18T06:27:02.748Z,3.50
2019-03-18T06:29:44.147Z,3.50
2019-03-18T06:32:25.082Z,3.40
2019-03-18T06:35:05.864Z,3.40
2019-03-18T06:37:47.281Z,3.40
2019-03-18T06:40:27.950Z,3.40
2019-03-18T06:43:09.432Z,3.40
2019-03-18T06:45:38.509Z,3.40
2019-03-18T06:48:26.697Z,3.50
2019-03-18T06:50:55.765Z,3.50
2019-03-18T06:53:43.883Z,3.50
2019-03-18T06:56:24.636Z,3.50
2019-03-18T06:59:05.102Z,3.50
2019-03-18T07:01:45.479Z,3.50
2019-03-18T07:04:26.511Z,3.50
2019-03-18T07:07:07.352Z,3.60
2019-03-18T07:09:48.126Z,3.70
2019-03-18T07:15:08.314Z,3.70
2019-03-18T07:17:49.103Z,3.70
2019-03-18T07:20:29.855Z,3.80
2019-03-18T07:23:10.867Z,3.80
2019-03-18T07:25:51.445Z,3.80
2019-03-18T07:28:20.441Z,3.80
2019-03-18T07:31:01.721Z,3.90
2019-03-18T07:33:30.703Z,3.90
2019-03-18T07:36:18.872Z,4.00
2019-03-18T07:39:02.807Z,4.10
2019-03-18T07:41:44.094Z,4.30
2019-03-18T07:44:24.992Z,4.40
2019-03-18T07:47:06.163Z,4.50
2019-03-18T07:49:46.981Z,4.60
2019-03-18T07:52:27.991Z,4.60
2019-03-18T07:55:08.843Z,4.80
2019-03-18T07:57:49.758Z,4.90
2019-03-18T08:00:31.137Z,4.90
2019-03-18T08:03:12.426Z,5.00
2019-03-18T08:05:53.094Z,5.20
2019-03-18T08:08:33.758Z,5.70
2019-03-18T08:11:15.204Z,5.90
2019-03-18T08:13:55.721Z,6.10
2019-03-18T08:16:24.807Z,6.30
2019-03-18T08:19:13.002Z,6.50
2019-03-18T08:22:01.182Z,6.40
2019-03-18T08:24:41.651Z,6.60
2019-03-18T08:27:22.849Z,6.90
2019-03-18T08:30:03.348Z,6.80
2019-03-18T08:32:44.057Z,6.40
2019-03-18T08:35:24.851Z,6.20
2019-03-18T08:38:05.768Z,6.20
2019-03-18T08:40:46.488Z,6.40
2019-03-18T08:43:27.425Z,6.70
2019-03-18T08:46:08.402Z,7.00
2019-03-18T08:48:55.663Z,7.00
2019-03-18T08:51:19.903Z,7.10
2019-03-18T08:54:08.167Z,7.10
2019-03-18T08:56:49.347Z,7.20
2019-03-18T08:59:30.117Z,7.20
2019-03-18T09:02:10.907Z,7.10
2019-03-18T09:04:51.790Z,6.90
2019-03-18T09:07:20.879Z,6.60
2019-03-18T09:10:09.061Z,6.50
2019-03-18T09:12:50.419Z,6.60
2019-03-18T09:15:31.199Z,6.70
2019-03-18T09:18:12.373Z,6.90
2019-03-18T09:20:53.554Z,7.00
2019-03-18T09:23:34.125Z,7.10
2019-03-18T09:26:15.384Z,7.40
2019-03-18T09:28:56.082Z,7.30
2019-03-18T09:31:37.167Z,7.40
2019-03-18T09:34:17.813Z,7.60
2019-03-18T09:36:58.611Z,7.70
2019-03-18T09:39:39.226Z,7.60
2019-03-18T09:42:19.846Z,7.80
2019-03-18T09:45:00.756Z,7.90
2019-03-18T09:47:41.454Z,7.90
2019-03-18T09:50:22.303Z,8.00
2019-03-18T09:53:03.286Z,8.20
2019-03-18T09:55:44.122Z,8.20
2019-03-18T09:58:25.040Z,8.20
2019-03-18T10:01:05.632Z,8.20
2019-03-18T10:03:46.636Z,8.20
2019-03-18T10:06:28.393Z,8.20
2019-03-18T10:09:09.234Z,8.30
2019-03-18T10:11:50.162Z,8.10
2019-03-18T10:14:50.040Z,8.00
2019-03-18T10:17:30.624Z,7.50
2019-03-18T10:19:59.691Z,7.20
2019-03-18T10:22:47.937Z,6.80
2019-03-18T10:25:28.598Z,6.60
2019-03-18T10:28:09.262Z,6.30
2019-03-18T10:30:50.299Z,6.10
2019-03-18T10:33:31.084Z,5.90
2019-03-18T10:36:11.767Z,5.70
2019-03-18T10:38:53.068Z,5.40
2019-03-18T10:41:22.217Z,5.10
2019-03-18T10:44:10.393Z,4.70
2019-03-18T10:46:58.551Z,4.60
2019-03-18T10:49:45.935Z,4.60
2019-03-18T10:52:10.472Z,4.70
2019-03-18T10:54:58.592Z,4.90
2019-03-18T10:57:46.868Z,5.10
2019-03-18T11:00:35.145Z,5.30
2019-03-18T11:03:16.328Z,5.40
2019-03-18T11:05:57.044Z,5.30
2019-03-18T11:08:38.262Z,5.40
2019-03-18T11:11:19.561Z,5.60
2019-03-18T11:14:00.747Z,5.90
2019-03-18T11:16:41.659Z,6.30
2019-03-18T11:19:22.584Z,6.40
2019-03-18T11:22:03.602Z,6.40
2019-03-18T11:24:44.531Z,6.40
2019-03-18T11:27:25.163Z,6.30
2019-03-18T11:30:05.888Z,6.20
2019-03-18T11:32:34.943Z,6.10
2019-03-18T11:35:23.110Z,6.00
2019-03-18T11:38:11.284Z,6.00
2019-03-18T11:40:52.338Z,6.00
2019-03-18T11:43:32.915Z,6.10
2019-03-18T11:46:13.512Z,6.20
2019-03-18T11:48:54.434Z,6.30
2019-03-18T11:51:35.132Z,6.50
2019-03-18T11:54:15.944Z,6.80
2019-03-18T11:56:56.466Z,7.00
2019-03-18T11:59:37.013Z,7.30
2019-03-18T12:02:27.276Z,7.50
2019-03-18T12:05:00.514Z,7.70
2019-03-18T12:07:41.370Z,7.80
2019-03-18T12:10:25.281Z,7.80
2019-03-18T12:13:05.010Z,7.70
2019-03-18T12:15:45.586Z,7.70
2019-03-18T12:18:26.373Z,7.60
2019-03-18T12:21:07.118Z,7.70
2019-03-18T12:23:48.133Z,7.70
2019-03-18T12:26:28.974Z,7.90
2019-03-18T12:29:09.649Z,8.00
2019-03-18T12:31:50.657Z,8.40
2019-03-18T12:34:32.843Z,8.70
2019-03-18T12:37:13.913Z,9.00
2019-03-18T12:39:54.279Z,9.10
2019-03-18T12:42:23.308Z,9.00
2019-03-18T12:45:11.747Z,8.80
2019-03-18T12:47:59.899Z,8.60
2019-03-18T12:50:55.096Z,8.70
2019-03-18T12:53:23.448Z,8.60
2019-03-18T12:56:03.962Z,8.50
2019-03-18T12:58:44.754Z,8.60
2019-03-18T13:01:25.822Z,8.70
2019-03-18T13:04:06.888Z,8.70
2019-03-18T13:06:47.757Z,8.70
2019-03-18T13:09:28.553Z,8.90
2019-03-18T13:12:13.298Z,9.10
2019-03-18T13:14:53.934Z,9.10
2019-03-18T13:17:34.797Z,9.20
2019-03-18T13:20:20.100Z,9.30
2019-03-18T13:23:01.127Z,9.60
2019-03-18T13:25:42.061Z,9.40
2019-03-18T13:28:27.985Z,9.20
2019-03-18T13:31:08.585Z,8.70
2019-03-18T13:33:49.562Z,8.30
2019-03-18T13:36:30.412Z,8.10
2019-03-18T13:39:11.106Z,7.90
2019-03-18T13:41:51.840Z,7.80
2019-03-18T13:44:32.791Z,7.80
2019-03-18T13:47:13.730Z,7.70
2019-03-18T13:49:54.511Z,7.70
2019-03-18T13:52:35.390Z,7.70
2019-03-18T13:55:16.540Z,7.80
2019-03-18T13:57:57.416Z,7.90
2019-03-18T14:00:38.235Z,8.30
2019-03-18T14:03:19.215Z,8.90
2019-03-18T14:06:00.217Z,9.20
2019-03-18T14:08:43.824Z,9.40
2019-03-18T14:11:24.855Z,9.70
2019-03-18T14:14:05.760Z,10.00
2019-03-18T14:16:46.670Z,10.50
2019-03-18T14:19:27.452Z,10.70
2019-03-18T14:22:09.325Z,10.70
2019-03-18T14:24:50.006Z,10.70
2019-03-18T14:27:30.720Z,10.60
2019-03-18T14:30:16.406Z,10.20
2019-03-18T14:32:57.550Z,10.20
2019-03-18T14:35:38.254Z,10.30
2019-03-18T14:38:19.133Z,10.60
2019-03-18T14:40:59.839Z,11.00
2019-03-18T14:43:40.644Z,11.30
2019-03-18T14:46:21.561Z,11.70
2019-03-18T14:49:02.698Z,12.10
2019-03-18T14:51:48.088Z,12.40
2019-03-18T14:54:33.036Z,12.90
2019-03-18T14:57:13.685Z,13.10
2019-03-18T14:59:54.341Z,13.00
2019-03-18T15:05:15.500Z,12.50
2019-03-18T15:07:57.623Z,11.70
2019-03-18T15:10:38.396Z,11.00
2019-03-18T15:13:30.240Z,11.00
2019-03-18T15:16:04.658Z,11.60
2019-03-18T15:18:45.775Z,11.90
2019-03-18T15:21:26.625Z,12.20
2019-03-18T15:24:16.873Z,11.50
2019-03-18T15:26:54.431Z,11.10
2019-03-18T15:29:34.966Z,10.80
2019-03-18T15:32:15.474Z,10.40
2019-03-18T15:34:56.188Z,9.90
2019-03-18T15:37:37.018Z,9.50
2019-03-18T15:40:17.880Z,9.00
2019-03-18T15:42:58.683Z,8.80
2019-03-18T15:45:39.397Z,8.70
2019-03-18T15:48:20.271Z,8.50
2019-03-18T15:51:01.089Z,8.50
2019-03-18T15:53:41.806Z,8.40
2019-03-18T15:56:22.706Z,8.40
2019-03-18T15:59:03.355Z,8.40
2019-03-18T16:01:44.973Z,8.30
2019-03-18T16:04:25.474Z,8.30
2019-03-18T16:07:06.265Z,8.20
2019-03-18T16:09:47.569Z,8.20
2019-03-18T16:12:29.000Z,8.20
2019-03-18T16:15:09.430Z,8.30
2019-03-18T16:17:52.995Z,8.40
2019-03-18T16:20:34.007Z,8.50
2019-03-18T16:23:14.725Z,8.40
2019-03-18T16:26:00.685Z,8.30
2019-03-18T16:28:41.137Z,8.20
2019-03-18T16:31:22.178Z,8.10
2019-03-18T16:34:06.438Z,7.90
2019-03-18T16:36:47.557Z,7.80
2019-03-18T16:39:28.595Z,7.60
2019-03-18T16:42:10.244Z,7.50
2019-03-18T16:44:52.585Z,7.40
2019-03-18T16:47:34.265Z,7.40
2019-03-18T16:50:15.350Z,7.30
2019-03-18T16:52:56.754Z,7.30
2019-03-18T16:55:37.392Z,7.20
2019-03-18T16:58:17.810Z,7.20
2019-03-18T17:00:58.230Z,7.20
2019-03-18T17:03:38.779Z,7.20
2019-03-18T17:06:19.367Z,7.10
2019-03-18T17:08:59.985Z,7.00
2019-03-18T17:11:41.351Z,6.90
2019-03-18T17:14:25.022Z,6.90
2019-03-18T17:17:05.766Z,6.80
2019-03-18T17:19:46.375Z,6.70
2019-03-18T17:22:16.802Z,6.60
2019-03-18T17:25:05.222Z,6.60
2019-03-18T17:27:45.747Z,6.50
2019-03-18T17:30:27.056Z,6.40
2019-03-18T17:33:08.348Z,6.40
2019-03-18T17:35:53.715Z,6.30
2019-03-18T17:38:34.125Z,6.20
2019-03-18T17:41:15.178Z,6.20
2019-03-18T17:43:55.780Z,6.10
2019-03-18T17:46:40.921Z,6.10
2019-03-18T17:52:31.142Z,6.00
2019-03-18T17:55:13.239Z,6.00
2019-03-18T17:57:54.002Z,5.90
2019-03-18T18:00:41.208Z,6.00
2019-03-18T18:06:05.673Z,5.90
2019-03-18T18:08:46.350Z,5.90
2019-03-18T18:11:27.295Z,5.90
2019-03-18T18:14:07.645Z,5.90
2019-03-18T18:16:48.288Z,5.80
2019-03-18T18:19:29.096Z,5.80
2019-03-18T18:22:09.641Z,5.80
2019-03-18T18:24:50.514Z,5.80
2019-03-18T18:27:31.362Z,5.80
2019-03-18T18:30:14.383Z,5.70
2019-03-18T18:32:55.031Z,5.70
2019-03-18T18:35:35.642Z,5.70
2019-03-18T18:38:20.491Z,5.60
2019-03-18T18:41:02.057Z,5.60
2019-03-18T18:43:43.001Z,5.60
2019-03-18T18:46:24.017Z,5.60
2019-03-18T18:49:08.709Z,5.60
2019-03-18T18:51:49.633Z,5.60
2019-03-18T18:54:30.334Z,5.60
2019-03-18T18:57:14.802Z,5.60
2019-03-18T18:59:55.701Z,5.60
2019-03-18T19:02:36.894Z,5.60
2019-03-18T19:05:23.092Z,5.60
2019-03-18T19:08:07.452Z,5.60
2019-03-18T19:10:48.026Z,5.60
2019-03-18T19:13:28.808Z,5.60
2019-03-18T19:16:13.681Z,5.60
2019-03-18T19:18:54.213Z,5.60
2019-03-18T19:21:35.473Z,5.60
2019-03-18T19:24:20.186Z,5.50
2019-03-18T19:27:01.984Z,5.50
2019-03-18T19:29:43.243Z,5.40
2019-03-18T19:32:12.381Z,5.20
2019-03-18T19:34:53.541Z,5.10
2019-03-18T19:37:34.274Z,4.90
2019-03-18T19:40:15.372Z,4.60
2019-03-18T19:42:56.158Z,4.40
2019-03-18T19:45:41.300Z,4.30
2019-03-18T19:48:21.902Z,4.10
2019-03-18T19:51:02.665Z,4.10
2019-03-18T19:53:49.170Z,4.00
2019-03-18T19:56:26.233Z,4.10
2019-03-18T19:59:07.407Z,4.10
2019-03-18T20:01:48.208Z,4.10
2019-03-18T20:04:29.011Z,4.10
2019-03-18T20:07:10.045Z,4.00
2019-03-18T20:09:50.684Z,4.00
2019-03-18T20:12:31.418Z,4.00
2019-03-18T20:15:12.298Z,4.00
2019-03-18T20:17:53.408Z,3.90
2019-03-18T20:20:33.981Z,3.90
2019-03-18T20:23:14.789Z,3.90
2019-03-18T20:25:55.713Z,3.90
2019-03-18T20:28:36.401Z,4.00
2019-03-18T20:31:25.408Z,3.90
2019-03-18T20:34:00.537Z,3.90
2019-03-18T20:36:42.035Z,3.80
2019-03-18T20:39:23.367Z,3.80
2019-03-18T20:42:04.589Z,3.70
2019-03-18T20:44:45.272Z,3.60
2019-03-18T20:47:26.099Z,3.60
2019-03-18T20:50:06.756Z,3.60
2019-03-18T20:52:35.806Z,3.60
2019-03-18T20:55:23.956Z,3.50
2019-03-18T20:58:05.097Z,3.50
2019-03-18T21:00:46.196Z,3.50
2019-03-18T21:03:26.614Z,3.60
2019-03-18T21:06:07.487Z,3.60
2019-03-18T21:08:48.551Z,3.60
2019-03-18T21:11:28.985Z,3.60
2019-03-18T21:19:30.979Z,3.70
2019-03-18T21:22:11.881Z,3.60
2019-03-18T21:24:52.706Z,3.60
2019-03-18T21:27:23.398Z,3.50
2019-03-18T21:30:11.632Z,3.50
2019-03-18T21:32:40.683Z,3.40
2019-03-18T21:35:21.590Z,3.40
2019-03-18T21:38:02.819Z,3.40
2019-03-18T21:40:44.685Z,3.40
2019-03-18T21:43:25.705Z,3.40
2019-03-18T21:46:06.447Z,3.50
2019-03-18T21:48:47.504Z,3.50
2019-03-18T21:51:28.237Z,3.50
2019-03-18T21:54:09.033Z,3.50
2019-03-18T21:59:40.367Z,3.50
2019-03-18T22:05:31.850Z,3.40
2019-03-18T22:08:00.981Z,3.40
2019-03-18T22:10:49.198Z,3.40
2019-03-18T22:13:38.045Z,3.40
2019-03-18T22:16:19.193Z,3.40
2019-03-18T22:18:59.910Z,3.40
2019-03-18T22:21:28.940Z,3.40
2019-03-18T22:24:17.195Z,3.40
2019-03-18T22:27:05.970Z,3.30
2019-03-18T22:29:47.003Z,3.30
2019-03-18T22:32:29.860Z,3.30
2019-03-18T22:35:10.253Z,3.20
2019-03-18T22:37:51.128Z,3.20
2019-03-18T22:40:32.296Z,3.20
2019-03-18T22:43:13.238Z,3.20
2019-03-18T22:45:54.124Z,3.20
2019-03-18T22:48:34.918Z,3.20
2019-03-18T22:51:16.124Z,3.20
2019-03-18T22:53:57.022Z,3.20
2019-03-18T22:56:38.382Z,3.10
2019-03-18T22:59:19.025Z,3.10
2019-03-18T23:01:59.980Z,3.00
2019-03-18T23:04:40.730Z,3.00
2019-03-18T23:07:21.926Z,3.00
2019-03-18T23:10:03.189Z,3.10
2019-03-18T23:12:44.264Z,3.10
2019-03-18T23:15:25.100Z,3.00
2019-03-18T23:18:05.965Z,3.00
2019-03-18T23:20:46.845Z,3.00
2019-03-18T23:23:27.764Z,3.00
2019-03-18T23:26:08.547Z,2.90
2019-03-18T23:28:49.397Z,2.90
2019-03-18T23:31:33.864Z,2.90
2019-03-18T23:34:15.123Z,2.80
2019-03-18T23:36:55.734Z,2.80
2019-03-18T23:39:40.969Z,2.70
2019-03-18T23:42:21.429Z,2.70
2019-03-18T23:45:02.470Z,2.70
2019-03-18T23:47:45.906Z,2.70
2019-03-18T23:50:27.085Z,2.60
2019-03-18T23:53:07.485Z,2.60
2019-03-18T23:55:48.997Z,2.60
2019-03-18T23:58:29.686Z,2.60
